sensor_id;sensor_type;location;lat;lon;timestamp;P1;durP1;ratioP1;P2;durP2;ratioP2
7919;SDS011;18778;47.610;9.776;2023-04-06T00:01:47;21.97;;;14.37;;
7919;SDS011;18778;47.610;9.776;2023-04-06T00:04:13;21.47;;;14.37;;
7919;SDS011;18778;47.610;9.776;2023-04-06T00:06:39;20.37;;;14.17;;
7919;SDS011;18778;47.610;9.776;2023-04-06T00:09:05;19.80;;;14.13;;
7919;SDS011;18778;47.610;9.776;2023-04-06T00:11:30;21.53;;;14.47;;
7919;SDS011;18778;47.610;9.776;2023-04-06T00:13:56;20.40;;;14.23;;
7919;SDS011;18778;47.610;9.776;2023-04-06T00:16:21;21.83;;;14.67;;
7919;SDS011;18778;47.610;9.776;2023-04-06T00:18:47;18.97;;;13.80;;
7919;SDS011;18778;47.610;9.776;2023-04-06T00:21:13;21.80;;;14.27;;
7919;SDS011;18778;47.610;9.776;2023-04-06T00:23:39;18.83;;;13.73;;
7919;SDS011;18778;47.610;9.776;2023-04-06T00:26:05;17.93;;;13.47;;
7919;SDS011;18778;47.610;9.776;2023-04-06T00:28:31;20.70;;;14.80;;
7919;SDS011;18778;47.610;9.776;2023-04-06T00:30:57;18.90;;;13.77;;
7919;SDS011;18778;47.610;9.776;2023-04-06T00:33:23;18.37;;;13.83;;
7919;SDS011;18778;47.610;9.776;2023-04-06T00:35:48;19.97;;;13.40;;
7919;SDS011;18778;47.610;9.776;2023-04-06T00:38:15;19.17;;;13.13;;
7919;SDS011;18778;47.610;9.776;2023-04-06T00:40:41;19.47;;;14.40;;
7919;SDS011;18778;47.610;9.776;2023-04-06T00:43:09;17.70;;;13.70;;
7919;SDS011;18778;47.610;9.776;2023-04-06T00:45:36;21.27;;;14.63;;
7919;SDS011;18778;47.610;9.776;2023-04-06T00:48:03;21.53;;;14.03;;
7919;SDS011;18778;47.610;9.776;2023-04-06T00:50:30;20.83;;;13.83;;
7919;SDS011;18778;47.610;9.776;2023-04-06T00:52:55;18.50;;;13.73;;
7919;SDS011;18778;47.610;9.776;2023-04-06T00:55:21;19.60;;;13.23;;
7919;SDS011;18778;47.610;9.776;2023-04-06T00:57:46;18.43;;;13.60;;
7919;SDS011;18778;47.610;9.776;2023-04-06T01:00:12;17.70;;;12.57;;
7919;SDS011;18778;47.610;9.776;2023-04-06T01:02:38;19.27;;;13.17;;
7919;SDS011;18778;47.610;9.776;2023-04-06T01:05:04;19.00;;;12.80;;
7919;SDS011;18778;47.610;9.776;2023-04-06T01:07:30;20.33;;;12.63;;
7919;SDS011;18778;47.610;9.776;2023-04-06T01:09:56;20.50;;;13.87;;
7919;SDS011;18778;47.610;9.776;2023-04-06T01:12:23;17.57;;;12.63;;
7919;SDS011;18778;47.610;9.776;2023-04-06T01:14:49;17.10;;;12.73;;
7919;SDS011;18778;47.610;9.776;2023-04-06T01:17:15;19.77;;;12.97;;
7919;SDS011;18778;47.610;9.776;2023-04-06T01:19:41;18.73;;;13.13;;
7919;SDS011;18778;47.610;9.776;2023-04-06T01:22:06;16.80;;;12.50;;
7919;SDS011;18778;47.610;9.776;2023-04-06T01:24:32;16.43;;;11.50;;
7919;SDS011;18778;47.610;9.776;2023-04-06T01:26:58;18.50;;;12.57;;
7919;SDS011;18778;47.610;9.776;2023-04-06T01:29:24;17.63;;;12.53;;
7919;SDS011;18778;47.610;9.776;2023-04-06T01:31:49;18.97;;;12.90;;
7919;SDS011;18778;47.610;9.776;2023-04-06T01:34:15;17.73;;;13.03;;
7919;SDS011;18778;47.610;9.776;2023-04-06T01:36:41;17.97;;;13.00;;
7919;SDS011;18778;47.610;9.776;2023-04-06T01:39:06;17.83;;;12.83;;
7919;SDS011;18778;47.610;9.776;2023-04-06T01:41:32;17.80;;;13.27;;
7919;SDS011;18778;47.610;9.776;2023-04-06T01:43:58;22.67;;;13.40;;
7919;SDS011;18778;47.610;9.776;2023-04-06T01:46:24;18.73;;;12.90;;
7919;SDS011;18778;47.610;9.776;2023-04-06T01:48:49;17.93;;;12.60;;
7919;SDS011;18778;47.610;9.776;2023-04-06T01:51:15;18.87;;;12.67;;
7919;SDS011;18778;47.610;9.776;2023-04-06T01:53:41;20.07;;;12.77;;
7919;SDS011;18778;47.610;9.776;2023-04-06T01:56:06;20.17;;;12.60;;
7919;SDS011;18778;47.610;9.776;2023-04-06T01:58:32;20.93;;;13.37;;
7919;SDS011;18778;47.610;9.776;2023-04-06T02:00:58;17.00;;;12.67;;
7919;SDS011;18778;47.610;9.776;2023-04-06T02:03:23;18.90;;;12.33;;
7919;SDS011;18778;47.610;9.776;2023-04-06T02:05:49;18.10;;;13.43;;
7919;SDS011;18778;47.610;9.776;2023-04-06T02:08:15;18.43;;;13.57;;
7919;SDS011;18778;47.610;9.776;2023-04-06T02:10:41;19.80;;;14.00;;
7919;SDS011;18778;47.610;9.776;2023-04-06T02:13:07;17.50;;;12.83;;
7919;SDS011;18778;47.610;9.776;2023-04-06T02:15:32;17.77;;;12.53;;
7919;SDS011;18778;47.610;9.776;2023-04-06T02:17:58;16.73;;;11.90;;
7919;SDS011;18778;47.610;9.776;2023-04-06T02:20:24;16.23;;;11.77;;
7919;SDS011;18778;47.610;9.776;2023-04-06T02:22:50;19.77;;;13.33;;
7919;SDS011;18778;47.610;9.776;2023-04-06T02:25:16;18.17;;;12.87;;
7919;SDS011;18778;47.610;9.776;2023-04-06T02:27:42;18.93;;;12.63;;
7919;SDS011;18778;47.610;9.776;2023-04-06T02:30:08;20.83;;;12.47;;
7919;SDS011;18778;47.610;9.776;2023-04-06T02:32:34;21.60;;;13.37;;
7919;SDS011;18778;47.610;9.776;2023-04-06T02:35:00;19.17;;;13.07;;
7919;SDS011;18778;47.610;9.776;2023-04-06T02:37:25;17.93;;;12.63;;
7919;SDS011;18778;47.610;9.776;2023-04-06T02:39:51;18.30;;;13.27;;
7919;SDS011;18778;47.610;9.776;2023-04-06T02:42:17;15.97;;;12.10;;
7919;SDS011;18778;47.610;9.776;2023-04-06T02:44:42;17.60;;;13.13;;
7919;SDS011;18778;47.610;9.776;2023-04-06T02:47:08;18.37;;;13.00;;
7919;SDS011;18778;47.610;9.776;2023-04-06T02:49:34;17.53;;;12.20;;
7919;SDS011;18778;47.610;9.776;2023-04-06T02:52:00;25.60;;;13.40;;
7919;SDS011;18778;47.610;9.776;2023-04-06T02:54:26;17.77;;;12.37;;
7919;SDS011;18778;47.610;9.776;2023-04-06T02:56:51;18.90;;;13.17;;
7919;SDS011;18778;47.610;9.776;2023-04-06T02:59:17;18.40;;;12.70;;
7919;SDS011;18778;47.610;9.776;2023-04-06T03:01:42;16.90;;;12.17;;
7919;SDS011;18778;47.610;9.776;2023-04-06T03:04:08;17.90;;;12.70;;
7919;SDS011;18778;47.610;9.776;2023-04-06T03:06:34;16.53;;;12.40;;
7919;SDS011;18778;47.610;9.776;2023-04-06T03:08:59;17.77;;;12.93;;
7919;SDS011;18778;47.610;9.776;2023-04-06T03:11:25;18.20;;;13.00;;
7919;SDS011;18778;47.610;9.776;2023-04-06T03:13:51;16.53;;;11.70;;
7919;SDS011;18778;47.610;9.776;2023-04-06T03:16:17;17.53;;;12.47;;
7919;SDS011;18778;47.610;9.776;2023-04-06T03:18:42;18.47;;;12.90;;
7919;SDS011;18778;47.610;9.776;2023-04-06T03:21:12;17.07;;;12.63;;
7919;SDS011;18778;47.610;9.776;2023-04-06T03:23:41;18.97;;;12.33;;
7919;SDS011;18778;47.610;9.776;2023-04-06T03:26:07;18.13;;;12.30;;
7919;SDS011;18778;47.610;9.776;2023-04-06T03:28:33;16.30;;;12.20;;
7919;SDS011;18778;47.610;9.776;2023-04-06T03:30:58;18.23;;;12.17;;
7919;SDS011;18778;47.610;9.776;2023-04-06T03:33:24;19.63;;;13.43;;
7919;SDS011;18778;47.610;9.776;2023-04-06T03:35:52;17.70;;;12.90;;
7919;SDS011;18778;47.610;9.776;2023-04-06T03:38:18;16.33;;;12.30;;
7919;SDS011;18778;47.610;9.776;2023-04-06T03:40:43;17.37;;;12.03;;
7919;SDS011;18778;47.610;9.776;2023-04-06T03:43:09;16.70;;;11.77;;
7919;SDS011;18778;47.610;9.776;2023-04-06T03:45:35;15.83;;;11.90;;
7919;SDS011;18778;47.610;9.776;2023-04-06T03:48:01;18.23;;;12.50;;
7919;SDS011;18778;47.610;9.776;2023-04-06T03:50:27;16.60;;;12.00;;
7919;SDS011;18778;47.610;9.776;2023-04-06T03:52:53;17.17;;;11.47;;
7919;SDS011;18778;47.610;9.776;2023-04-06T03:55:19;17.43;;;11.87;;
7919;SDS011;18778;47.610;9.776;2023-04-06T03:57:45;18.70;;;13.40;;
7919;SDS011;18778;47.610;9.776;2023-04-06T04:00:11;22.80;;;15.10;;
7919;SDS011;18778;47.610;9.776;2023-04-06T04:02:37;19.60;;;13.80;;
7919;SDS011;18778;47.610;9.776;2023-04-06T04:05:03;18.97;;;14.20;;
7919;SDS011;18778;47.610;9.776;2023-04-06T04:07:28;18.73;;;12.97;;
7919;SDS011;18778;47.610;9.776;2023-04-06T04:09:55;18.50;;;13.03;;
7919;SDS011;18778;47.610;9.776;2023-04-06T04:12:20;17.90;;;11.73;;
7919;SDS011;18778;47.610;9.776;2023-04-06T04:14:48;16.97;;;12.87;;
7919;SDS011;18778;47.610;9.776;2023-04-06T04:17:14;17.73;;;12.40;;
7919;SDS011;18778;47.610;9.776;2023-04-06T04:19:39;18.53;;;12.70;;
7919;SDS011;18778;47.610;9.776;2023-04-06T04:22:05;17.53;;;12.60;;
7919;SDS011;18778;47.610;9.776;2023-04-06T04:24:31;16.33;;;12.07;;
7919;SDS011;18778;47.610;9.776;2023-04-06T04:26:58;20.07;;;12.20;;
7919;SDS011;18778;47.610;9.776;2023-04-06T04:29:24;17.17;;;12.30;;
7919;SDS011;18778;47.610;9.776;2023-04-06T04:31:49;21.03;;;12.50;;
7919;SDS011;18778;47.610;9.776;2023-04-06T04:34:15;17.77;;;12.70;;
7919;SDS011;18778;47.610;9.776;2023-04-06T04:36:41;16.30;;;11.90;;
7919;SDS011;18778;47.610;9.776;2023-04-06T04:39:07;15.97;;;12.00;;
7919;SDS011;18778;47.610;9.776;2023-04-06T04:41:33;16.50;;;11.87;;
7919;SDS011;18778;47.610;9.776;2023-04-06T04:43:59;20.40;;;12.73;;
7919;SDS011;18778;47.610;9.776;2023-04-06T04:46:24;16.30;;;11.53;;
7919;SDS011;18778;47.610;9.776;2023-04-06T04:48:50;18.13;;;11.97;;
7919;SDS011;18778;47.610;9.776;2023-04-06T04:51:16;19.63;;;12.13;;
7919;SDS011;18778;47.610;9.776;2023-04-06T04:53:42;18.17;;;12.70;;
7919;SDS011;18778;47.610;9.776;2023-04-06T04:56:07;16.70;;;12.50;;
7919;SDS011;18778;47.610;9.776;2023-04-06T04:58:33;17.90;;;12.07;;
7919;SDS011;18778;47.610;9.776;2023-04-06T05:00:59;17.30;;;12.27;;
7919;SDS011;18778;47.610;9.776;2023-04-06T05:03:25;19.30;;;13.20;;
7919;SDS011;18778;47.610;9.776;2023-04-06T05:05:51;16.93;;;12.17;;
7919;SDS011;18778;47.610;9.776;2023-04-06T05:08:17;18.80;;;12.13;;
7919;SDS011;18778;47.610;9.776;2023-04-06T05:10:43;19.40;;;12.00;;
7919;SDS011;18778;47.610;9.776;2023-04-06T05:13:13;17.70;;;12.10;;
7919;SDS011;18778;47.610;9.776;2023-04-06T05:15:39;18.70;;;13.10;;
7919;SDS011;18778;47.610;9.776;2023-04-06T05:18:05;15.97;;;11.73;;
7919;SDS011;18778;47.610;9.776;2023-04-06T05:20:34;17.87;;;12.13;;
7919;SDS011;18778;47.610;9.776;2023-04-06T05:23:00;17.30;;;12.30;;
7919;SDS011;18778;47.610;9.776;2023-04-06T05:25:26;17.87;;;12.83;;
7919;SDS011;18778;47.610;9.776;2023-04-06T05:27:55;18.77;;;12.60;;
7919;SDS011;18778;47.610;9.776;2023-04-06T05:30:21;19.20;;;13.23;;
7919;SDS011;18778;47.610;9.776;2023-04-06T05:32:47;18.07;;;12.70;;
7919;SDS011;18778;47.610;9.776;2023-04-06T05:35:13;17.97;;;12.03;;
7919;SDS011;18778;47.610;9.776;2023-04-06T05:37:39;16.37;;;12.10;;
7919;SDS011;18778;47.610;9.776;2023-04-06T05:40:05;17.17;;;11.93;;
7919;SDS011;18778;47.610;9.776;2023-04-06T05:42:37;16.87;;;11.90;;
7919;SDS011;18778;47.610;9.776;2023-04-06T05:45:07;15.13;;;11.73;;
7919;SDS011;18778;47.610;9.776;2023-04-06T05:47:34;19.80;;;14.17;;
7919;SDS011;18778;47.610;9.776;2023-04-06T05:50:00;20.30;;;13.80;;
7919;SDS011;18778;47.610;9.776;2023-04-06T05:52:26;21.07;;;14.83;;
7919;SDS011;18778;47.610;9.776;2023-04-06T05:54:52;20.93;;;14.57;;
7919;SDS011;18778;47.610;9.776;2023-04-06T05:57:17;16.93;;;12.87;;
7919;SDS011;18778;47.610;9.776;2023-04-06T05:59:43;18.67;;;12.20;;
7919;SDS011;18778;47.610;9.776;2023-04-06T06:02:10;18.67;;;12.50;;
7919;SDS011;18778;47.610;9.776;2023-04-06T06:04:35;18.80;;;13.20;;
7919;SDS011;18778;47.610;9.776;2023-04-06T06:07:01;19.20;;;13.33;;
7919;SDS011;18778;47.610;9.776;2023-04-06T06:09:26;19.37;;;13.70;;
7919;SDS011;18778;47.610;9.776;2023-04-06T06:11:52;20.20;;;14.57;;
7919;SDS011;18778;47.610;9.776;2023-04-06T06:14:17;18.37;;;13.00;;
7919;SDS011;18778;47.610;9.776;2023-04-06T06:16:43;21.60;;;14.97;;
7919;SDS011;18778;47.610;9.776;2023-04-06T06:19:09;21.00;;;13.30;;
7919;SDS011;18778;47.610;9.776;2023-04-06T06:21:35;20.67;;;14.03;;
7919;SDS011;18778;47.610;9.776;2023-04-06T06:24:00;18.57;;;13.40;;
7919;SDS011;18778;47.610;9.776;2023-04-06T06:26:27;20.30;;;15.00;;
7919;SDS011;18778;47.610;9.776;2023-04-06T06:28:52;20.63;;;14.67;;
7919;SDS011;18778;47.610;9.776;2023-04-06T06:31:18;23.10;;;15.00;;
7919;SDS011;18778;47.610;9.776;2023-04-06T06:33:48;26.03;;;16.10;;
7919;SDS011;18778;47.610;9.776;2023-04-06T06:36:16;29.13;;;18.90;;
7919;SDS011;18778;47.610;9.776;2023-04-06T06:38:42;29.63;;;17.70;;
7919;SDS011;18778;47.610;9.776;2023-04-06T06:41:08;28.73;;;18.70;;
7919;SDS011;18778;47.610;9.776;2023-04-06T06:43:34;23.73;;;15.80;;
7919;SDS011;18778;47.610;9.776;2023-04-06T06:46:00;20.43;;;14.97;;
7919;SDS011;18778;47.610;9.776;2023-04-06T06:48:26;21.67;;;13.83;;
7919;SDS011;18778;47.610;9.776;2023-04-06T06:50:52;18.17;;;12.97;;
7919;SDS011;18778;47.610;9.776;2023-04-06T06:53:18;17.67;;;12.53;;
7919;SDS011;18778;47.610;9.776;2023-04-06T06:55:44;17.00;;;12.97;;
7919;SDS011;18778;47.610;9.776;2023-04-06T06:58:10;17.90;;;13.27;;
7919;SDS011;18778;47.610;9.776;2023-04-06T07:00:36;24.90;;;16.17;;
7919;SDS011;18778;47.610;9.776;2023-04-06T07:03:02;30.60;;;19.83;;
7919;SDS011;18778;47.610;9.776;2023-04-06T07:05:28;58.37;;;39.13;;
7919;SDS011;18778;47.610;9.776;2023-04-06T07:07:54;53.97;;;37.07;;
7919;SDS011;18778;47.610;9.776;2023-04-06T07:10:20;41.30;;;29.70;;
7919;SDS011;18778;47.610;9.776;2023-04-06T07:12:45;18.40;;;12.17;;
7919;SDS011;18778;47.610;9.776;2023-04-06T07:15:11;15.40;;;11.60;;
7919;SDS011;18778;47.610;9.776;2023-04-06T07:17:37;14.37;;;11.77;;
7919;SDS011;18778;47.610;9.776;2023-04-06T07:20:02;17.30;;;12.50;;
7919;SDS011;18778;47.610;9.776;2023-04-06T07:22:28;35.63;;;23.00;;
7919;SDS011;18778;47.610;9.776;2023-04-06T07:24:55;32.57;;;21.37;;
7919;SDS011;18778;47.610;9.776;2023-04-06T07:27:21;28.20;;;18.30;;
7919;SDS011;18778;47.610;9.776;2023-04-06T07:29:47;15.23;;;11.87;;
7919;SDS011;18778;47.610;9.776;2023-04-06T07:32:12;12.13;;;9.70;;
7919;SDS011;18778;47.610;9.776;2023-04-06T07:34:38;10.37;;;8.37;;
7919;SDS011;18778;47.610;9.776;2023-04-06T07:37:04;9.40;;;8.40;;
7919;SDS011;18778;47.610;9.776;2023-04-06T07:39:30;10.50;;;8.70;;
7919;SDS011;18778;47.610;9.776;2023-04-06T07:41:56;9.73;;;7.67;;
7919;SDS011;18778;47.610;9.776;2023-04-06T07:44:22;8.00;;;7.03;;
7919;SDS011;18778;47.610;9.776;2023-04-06T07:46:47;8.23;;;7.43;;
7919;SDS011;18778;47.610;9.776;2023-04-06T07:49:13;7.90;;;6.83;;
7919;SDS011;18778;47.610;9.776;2023-04-06T07:51:39;7.17;;;6.50;;
7919;SDS011;18778;47.610;9.776;2023-04-06T07:54:05;9.17;;;7.20;;
7919;SDS011;18778;47.610;9.776;2023-04-06T07:56:31;8.50;;;6.97;;
7919;SDS011;18778;47.610;9.776;2023-04-06T07:58:57;10.30;;;7.13;;
7919;SDS011;18778;47.610;9.776;2023-04-06T08:01:23;10.80;;;8.20;;
7919;SDS011;18778;47.610;9.776;2023-04-06T08:03:49;11.80;;;8.57;;
7919;SDS011;18778;47.610;9.776;2023-04-06T08:06:16;12.30;;;9.67;;
7919;SDS011;18778;47.610;9.776;2023-04-06T08:08:42;9.30;;;7.70;;
7919;SDS011;18778;47.610;9.776;2023-04-06T08:11:08;9.13;;;6.57;;
7919;SDS011;18778;47.610;9.776;2023-04-06T08:13:34;8.07;;;7.13;;
7919;SDS011;18778;47.610;9.776;2023-04-06T08:16:00;9.03;;;6.97;;
7919;SDS011;18778;47.610;9.776;2023-04-06T08:18:26;9.80;;;7.73;;
7919;SDS011;18778;47.610;9.776;2023-04-06T08:20:51;9.57;;;8.07;;
7919;SDS011;18778;47.610;9.776;2023-04-06T08:23:17;10.20;;;7.10;;
7919;SDS011;18778;47.610;9.776;2023-04-06T08:25:43;8.93;;;7.20;;
7919;SDS011;18778;47.610;9.776;2023-04-06T08:28:09;11.33;;;8.90;;
7919;SDS011;18778;47.610;9.776;2023-04-06T08:30:35;9.90;;;8.07;;
7919;SDS011;18778;47.610;9.776;2023-04-06T08:33:02;11.83;;;9.00;;
7919;SDS011;18778;47.610;9.776;2023-04-06T08:35:27;10.43;;;9.30;;
7919;SDS011;18778;47.610;9.776;2023-04-06T08:37:53;9.53;;;8.07;;
7919;SDS011;18778;47.610;9.776;2023-04-06T08:40:19;9.37;;;7.97;;
7919;SDS011;18778;47.610;9.776;2023-04-06T08:42:49;9.07;;;8.03;;
7919;SDS011;18778;47.610;9.776;2023-04-06T08:45:16;8.73;;;6.87;;
7919;SDS011;18778;47.610;9.776;2023-04-06T08:47:42;13.00;;;10.03;;
7919;SDS011;18778;47.610;9.776;2023-04-06T08:50:10;10.67;;;8.97;;
7919;SDS011;18778;47.610;9.776;2023-04-06T08:52:36;10.63;;;9.50;;
7919;SDS011;18778;47.610;9.776;2023-04-06T08:55:04;14.47;;;10.37;;
7919;SDS011;18778;47.610;9.776;2023-04-06T08:57:29;12.50;;;11.20;;
7919;SDS011;18778;47.610;9.776;2023-04-06T08:59:56;16.47;;;12.20;;
7919;SDS011;18778;47.610;9.776;2023-04-06T09:02:22;13.23;;;11.33;;
7919;SDS011;18778;47.610;9.776;2023-04-06T09:04:49;14.27;;;11.20;;
7919;SDS011;18778;47.610;9.776;2023-04-06T09:07:18;11.53;;;9.03;;
7919;SDS011;18778;47.610;9.776;2023-04-06T09:09:44;10.10;;;8.30;;
7919;SDS011;18778;47.610;9.776;2023-04-06T09:12:29;11.77;;;10.30;;
7919;SDS011;18778;47.610;9.776;2023-04-06T09:14:56;14.90;;;11.97;;
7919;SDS011;18778;47.610;9.776;2023-04-06T09:17:27;13.10;;;11.07;;
7919;SDS011;18778;47.610;9.776;2023-04-06T09:19:54;13.07;;;11.43;;
7919;SDS011;18778;47.610;9.776;2023-04-06T09:22:20;17.60;;;12.40;;
7919;SDS011;18778;47.610;9.776;2023-04-06T09:24:48;18.70;;;10.90;;
7919;SDS011;18778;47.610;9.776;2023-04-06T09:27:18;14.23;;;9.13;;
7919;SDS011;18778;47.610;9.776;2023-04-06T09:30:29;11.03;;;9.63;;
7919;SDS011;18778;47.610;9.776;2023-04-06T09:32:50;13.73;;;11.40;;
7919;SDS011;18778;47.610;9.776;2023-04-06T09:35:19;10.53;;;8.00;;
7919;SDS011;18778;47.610;9.776;2023-04-06T09:37:46;9.93;;;7.63;;
7919;SDS011;18778;47.610;9.776;2023-04-06T09:40:16;10.13;;;7.83;;
7919;SDS011;18778;47.610;9.776;2023-04-06T09:42:47;8.57;;;7.57;;
7919;SDS011;18778;47.610;9.776;2023-04-06T09:45:15;9.63;;;7.60;;
7919;SDS011;18778;47.610;9.776;2023-04-06T09:47:42;10.20;;;9.00;;
7919;SDS011;18778;47.610;9.776;2023-04-06T09:50:10;10.27;;;8.57;;
7919;SDS011;18778;47.610;9.776;2023-04-06T09:52:39;9.37;;;7.50;;
7919;SDS011;18778;47.610;9.776;2023-04-06T09:55:05;11.97;;;8.37;;
7919;SDS011;18778;47.610;9.776;2023-04-06T09:57:46;9.27;;;7.63;;
7919;SDS011;18778;47.610;9.776;2023-04-06T10:01:15;10.97;;;7.37;;
7919;SDS011;18778;47.610;9.776;2023-04-06T10:06:04;9.30;;;6.83;;
7919;SDS011;18778;47.610;9.776;2023-04-06T10:08:35;9.23;;;7.07;;
7919;SDS011;18778;47.610;9.776;2023-04-06T10:11:05;7.80;;;6.90;;
7919;SDS011;18778;47.610;9.776;2023-04-06T10:13:31;10.07;;;7.27;;
7919;SDS011;18778;47.610;9.776;2023-04-06T10:15:57;6.37;;;5.20;;
7919;SDS011;18778;47.610;9.776;2023-04-06T10:18:25;8.90;;;7.23;;
7919;SDS011;18778;47.610;9.776;2023-04-06T10:20:53;8.20;;;6.43;;
7919;SDS011;18778;47.610;9.776;2023-04-06T10:26:13;9.67;;;7.23;;
7919;SDS011;18778;47.610;9.776;2023-04-06T10:28:41;7.47;;;6.37;;
7919;SDS011;18778;47.610;9.776;2023-04-06T10:31:08;8.87;;;7.37;;
7919;SDS011;18778;47.610;9.776;2023-04-06T10:33:34;8.77;;;7.10;;
7919;SDS011;18778;47.610;9.776;2023-04-06T10:36:10;8.97;;;7.40;;
7919;SDS011;18778;47.610;9.776;2023-04-06T10:38:40;9.53;;;7.40;;
7919;SDS011;18778;47.610;9.776;2023-04-06T10:41:07;7.93;;;6.40;;
7919;SDS011;18778;47.610;9.776;2023-04-06T10:43:35;6.93;;;5.40;;
7919;SDS011;18778;47.610;9.776;2023-04-06T10:46:02;6.60;;;5.73;;
7919;SDS011;18778;47.610;9.776;2023-04-06T10:48:38;7.83;;;6.27;;
7919;SDS011;18778;47.610;9.776;2023-04-06T10:51:15;7.60;;;6.80;;
7919;SDS011;18778;47.610;9.776;2023-04-06T10:53:43;8.67;;;7.30;;
7919;SDS011;18778;47.610;9.776;2023-04-06T10:56:11;8.37;;;6.37;;
7919;SDS011;18778;47.610;9.776;2023-04-06T10:58:38;7.40;;;6.70;;
7919;SDS011;18778;47.610;9.776;2023-04-06T11:01:10;7.43;;;6.60;;
7919;SDS011;18778;47.610;9.776;2023-04-06T11:03:52;7.60;;;6.30;;
7919;SDS011;18778;47.610;9.776;2023-04-06T11:08:47;9.40;;;7.07;;
7919;SDS011;18778;47.610;9.776;2023-04-06T11:11:13;7.77;;;6.97;;
7919;SDS011;18778;47.610;9.776;2023-04-06T11:13:50;10.73;;;7.03;;
7919;SDS011;18778;47.610;9.776;2023-04-06T11:18:47;7.77;;;6.77;;
7919;SDS011;18778;47.610;9.776;2023-04-06T11:21:13;9.13;;;6.97;;
7919;SDS011;18778;47.610;9.776;2023-04-06T11:23:39;8.60;;;7.10;;
7919;SDS011;18778;47.610;9.776;2023-04-06T11:26:09;9.57;;;7.13;;
7919;SDS011;18778;47.610;9.776;2023-04-06T11:28:42;8.00;;;6.97;;
7919;SDS011;18778;47.610;9.776;2023-04-06T11:31:08;10.33;;;6.93;;
7919;SDS011;18778;47.610;9.776;2023-04-06T11:33:36;8.37;;;7.47;;
7919;SDS011;18778;47.610;9.776;2023-04-06T11:36:03;11.97;;;7.73;;
7919;SDS011;18778;47.610;9.776;2023-04-06T11:38:29;10.17;;;7.73;;
7919;SDS011;18778;47.610;9.776;2023-04-06T11:40:55;10.07;;;7.47;;
7919;SDS011;18778;47.610;9.776;2023-04-06T11:43:30;7.77;;;6.93;;
7919;SDS011;18778;47.610;9.776;2023-04-06T11:46:00;9.53;;;7.57;;
7919;SDS011;18778;47.610;9.776;2023-04-06T11:48:27;8.83;;;7.93;;
7919;SDS011;18778;47.610;9.776;2023-04-06T11:50:57;9.87;;;7.47;;
7919;SDS011;18778;47.610;9.776;2023-04-06T11:53:26;9.57;;;7.90;;
7919;SDS011;18778;47.610;9.776;2023-04-06T11:55:52;9.33;;;7.43;;
7919;SDS011;18778;47.610;9.776;2023-04-06T11:58:18;9.20;;;7.50;;
7919;SDS011;18778;47.610;9.776;2023-04-06T12:00:44;9.97;;;7.93;;
7919;SDS011;18778;47.610;9.776;2023-04-06T12:03:11;8.83;;;7.90;;
7919;SDS011;18778;47.610;9.776;2023-04-06T12:05:37;9.60;;;8.07;;
7919;SDS011;18778;47.610;9.776;2023-04-06T12:08:02;10.63;;;8.23;;
7919;SDS011;18778;47.610;9.776;2023-04-06T12:10:28;8.37;;;7.07;;
7919;SDS011;18778;47.610;9.776;2023-04-06T12:12:54;9.67;;;7.80;;
7919;SDS011;18778;47.610;9.776;2023-04-06T12:15:20;9.97;;;8.30;;
7919;SDS011;18778;47.610;9.776;2023-04-06T12:17:46;11.70;;;9.37;;
7919;SDS011;18778;47.610;9.776;2023-04-06T12:20:12;10.73;;;9.33;;
7919;SDS011;18778;47.610;9.776;2023-04-06T12:22:38;9.53;;;8.47;;
7919;SDS011;18778;47.610;9.776;2023-04-06T12:25:04;9.93;;;8.43;;
7919;SDS011;18778;47.610;9.776;2023-04-06T12:27:31;9.63;;;8.63;;
7919;SDS011;18778;47.610;9.776;2023-04-06T12:29:57;10.20;;;9.00;;
7919;SDS011;18778;47.610;9.776;2023-04-06T12:32:23;10.57;;;9.13;;
7919;SDS011;18778;47.610;9.776;2023-04-06T12:34:48;10.37;;;8.80;;
7919;SDS011;18778;47.610;9.776;2023-04-06T12:37:15;9.53;;;8.53;;
7919;SDS011;18778;47.610;9.776;2023-04-06T12:39:41;10.90;;;8.63;;
7919;SDS011;18778;47.610;9.776;2023-04-06T12:42:09;10.40;;;9.00;;
7919;SDS011;18778;47.610;9.776;2023-04-06T12:44:35;10.00;;;8.90;;
7919;SDS011;18778;47.610;9.776;2023-04-06T12:47:00;10.50;;;9.23;;
7919;SDS011;18778;47.610;9.776;2023-04-06T12:49:26;10.10;;;8.67;;
7919;SDS011;18778;47.610;9.776;2023-04-06T12:51:51;9.27;;;8.27;;
7919;SDS011;18778;47.610;9.776;2023-04-06T12:54:17;13.03;;;9.73;;
7919;SDS011;18778;47.610;9.776;2023-04-06T12:56:43;11.37;;;9.30;;
7919;SDS011;18778;47.610;9.776;2023-04-06T12:59:08;11.07;;;9.23;;
7919;SDS011;18778;47.610;9.776;2023-04-06T13:01:34;9.43;;;8.53;;
7919;SDS011;18778;47.610;9.776;2023-04-06T13:03:59;10.70;;;8.90;;
7919;SDS011;18778;47.610;9.776;2023-04-06T13:06:25;10.97;;;8.87;;
7919;SDS011;18778;47.610;9.776;2023-04-06T13:08:52;9.83;;;8.80;;
7919;SDS011;18778;47.610;9.776;2023-04-06T13:11:18;11.00;;;8.67;;
7919;SDS011;18778;47.610;9.776;2023-04-06T13:13:45;10.00;;;9.00;;
7919;SDS011;18778;47.610;9.776;2023-04-06T13:16:11;11.83;;;8.67;;
7919;SDS011;18778;47.610;9.776;2023-04-06T13:18:36;10.10;;;8.40;;
7919;SDS011;18778;47.610;9.776;2023-04-06T13:21:03;17.27;;;9.30;;
7919;SDS011;18778;47.610;9.776;2023-04-06T13:23:30;10.97;;;9.50;;
7919;SDS011;18778;47.610;9.776;2023-04-06T13:25:56;11.30;;;9.40;;
7919;SDS011;18778;47.610;9.776;2023-04-06T13:28:23;11.63;;;9.27;;
7919;SDS011;18778;47.610;9.776;2023-04-06T13:30:49;11.60;;;9.53;;
7919;SDS011;18778;47.610;9.776;2023-04-06T13:33:15;9.63;;;8.33;;
7919;SDS011;18778;47.610;9.776;2023-04-06T13:35:44;10.33;;;8.30;;
7919;SDS011;18778;47.610;9.776;2023-04-06T13:38:10;9.87;;;8.60;;
7919;SDS011;18778;47.610;9.776;2023-04-06T13:40:38;9.60;;;8.30;;
7919;SDS011;18778;47.610;9.776;2023-04-06T13:43:05;10.17;;;8.60;;
7919;SDS011;18778;47.610;9.776;2023-04-06T13:45:30;10.47;;;8.53;;
7919;SDS011;18778;47.610;9.776;2023-04-06T13:47:56;9.17;;;8.27;;
7919;SDS011;18778;47.610;9.776;2023-04-06T13:50:21;9.37;;;7.47;;
7919;SDS011;18778;47.610;9.776;2023-04-06T13:52:47;9.03;;;8.13;;
7919;SDS011;18778;47.610;9.776;2023-04-06T13:55:14;10.00;;;8.40;;
7919;SDS011;18778;47.610;9.776;2023-04-06T13:57:40;11.33;;;8.40;;
7919;SDS011;18778;47.610;9.776;2023-04-06T14:00:06;8.93;;;7.63;;
7919;SDS011;18778;47.610;9.776;2023-04-06T14:02:33;8.70;;;7.73;;
7919;SDS011;18778;47.610;9.776;2023-04-06T14:04:58;8.30;;;7.27;;
7919;SDS011;18778;47.610;9.776;2023-04-06T14:07:24;8.00;;;6.97;;
7919;SDS011;18778;47.610;9.776;2023-04-06T14:09:49;7.97;;;7.27;;
7919;SDS011;18778;47.610;9.776;2023-04-06T14:12:15;8.30;;;7.50;;
7919;SDS011;18778;47.610;9.776;2023-04-06T14:14:41;7.60;;;6.80;;
7919;SDS011;18778;47.610;9.776;2023-04-06T14:17:06;8.00;;;7.03;;
7919;SDS011;18778;47.610;9.776;2023-04-06T14:19:32;8.10;;;7.30;;
7919;SDS011;18778;47.610;9.776;2023-04-06T14:21:59;7.80;;;6.77;;
7919;SDS011;18778;47.610;9.776;2023-04-06T14:24:25;8.50;;;7.60;;
7919;SDS011;18778;47.610;9.776;2023-04-06T14:26:51;10.00;;;7.40;;
7919;SDS011;18778;47.610;9.776;2023-04-06T14:29:16;8.03;;;7.23;;
7919;SDS011;18778;47.610;9.776;2023-04-06T14:31:42;8.90;;;7.97;;
7919;SDS011;18778;47.610;9.776;2023-04-06T14:34:09;14.80;;;7.50;;
7919;SDS011;18778;47.610;9.776;2023-04-06T14:36:35;11.53;;;7.43;;
7919;SDS011;18778;47.610;9.776;2023-04-06T14:39:05;10.90;;;8.30;;
7919;SDS011;18778;47.610;9.776;2023-04-06T14:41:32;12.17;;;7.37;;
7919;SDS011;18778;47.610;9.776;2023-04-06T14:43:58;8.30;;;7.43;;
7919;SDS011;18778;47.610;9.776;2023-04-06T14:46:24;8.47;;;6.93;;
7919;SDS011;18778;47.610;9.776;2023-04-06T14:48:51;7.27;;;6.57;;
7919;SDS011;18778;47.610;9.776;2023-04-06T14:51:21;8.30;;;7.17;;